createdAt,value
2019-02-21T00:00:26.262Z,0.00
2019-02-21T00:01:26.285Z,0.00
2019-02-21T00:02:26.303Z,0.00
2019-02-21T00:03:26.329Z,0.00
2019-02-21T00:04:26.348Z,0.00
2019-02-21T00:05:26.377Z,0.00
2019-02-21T00:06:26.393Z,0.00
2019-02-21T00:07:26.419Z,0.00
2019-02-21T00:08:26.446Z,0.00
2019-02-21T00:09:26.467Z,0.00
2019-02-21T00:10:26.484Z,0.00
2019-02-21T00:11:26.506Z,0.00
2019-02-21T00:12:26.529Z,0.00
2019-02-21T00:13:26.551Z,0.00
2019-02-21T00:14:26.573Z,0.00
2019-02-21T00:15:26.601Z,0.00
2019-02-21T00:16:26.621Z,0.00
2019-02-21T00:17:26.647Z,0.00
2019-02-21T00:18:26.672Z,0.00
2019-02-21T00:19:26.688Z,0.00
2019-02-21T00:20:26.712Z,0.00
2019-02-21T00:21:26.734Z,0.00
2019-02-21T00:22:26.759Z,0.00
2019-02-21T00:23:26.778Z,0.00
2019-02-21T00:24:26.799Z,0.00
2019-02-21T00:25:26.825Z,0.00
2019-02-21T00:26:26.850Z,0.00
2019-02-21T00:27:26.867Z,0.00
2019-02-21T00:28:26.895Z,0.00
2019-02-21T00:29:26.916Z,0.00
2019-02-21T00:30:34.917Z,0.00
2019-02-21T00:31:26.966Z,0.00
2019-02-21T00:32:26.983Z,0.00
2019-02-21T00:33:27.004Z,0.00
2019-02-21T00:34:27.028Z,0.00
2019-02-21T00:35:27.051Z,0.00
2019-02-21T00:36:27.081Z,0.00
2019-02-21T00:37:27.094Z,0.00
2019-02-21T00:38:27.118Z,0.00
2019-02-21T00:39:27.141Z,0.00
2019-02-21T00:40:27.164Z,0.00
2019-02-21T00:41:27.189Z,0.00
2019-02-21T00:42:27.212Z,0.00
2019-02-21T00:43:27.245Z,0.00
2019-02-21T00:44:27.269Z,0.00
2019-02-21T00:45:27.281Z,0.00
2019-02-21T00:46:27.301Z,0.00
2019-02-21T00:47:27.324Z,0.00
2019-02-21T00:48:27.350Z,0.00
2019-02-21T00:49:27.381Z,0.00
2019-02-21T00:50:27.395Z,0.00
2019-02-21T00:51:27.420Z,0.00
2019-02-21T00:52:27.440Z,0.00
2019-02-21T00:53:27.461Z,0.00
2019-02-21T00:54:27.484Z,0.00
2019-02-21T00:55:27.989Z,0.00
2019-02-21T00:56:27.533Z,0.00
2019-02-21T00:57:27.554Z,0.00
2019-02-21T00:58:27.579Z,0.00
2019-02-21T00:59:27.599Z,0.00
2019-02-21T01:00:27.624Z,0.00
2019-02-21T01:01:27.645Z,0.00
2019-02-21T01:02:27.671Z,0.00
2019-02-21T01:03:27.693Z,0.00
2019-02-21T01:04:27.716Z,0.00
2019-02-21T01:05:27.736Z,0.00
2019-02-21T01:06:27.759Z,0.00
2019-02-21T01:07:27.783Z,0.00
2019-02-21T01:08:27.805Z,0.00
2019-02-21T01:09:27.827Z,0.00
2019-02-21T01:10:27.851Z,0.00
2019-02-21T01:11:27.881Z,0.00
2019-02-21T01:12:27.901Z,0.00
2019-02-21T01:13:27.922Z,0.00
2019-02-21T01:14:27.942Z,0.00
2019-02-21T01:15:28.005Z,0.00
2019-02-21T01:16:27.993Z,0.00
2019-02-21T01:17:28.014Z,0.00
2019-02-21T01:18:28.035Z,0.00
2019-02-21T01:19:28.056Z,0.00
2019-02-21T01:20:28.082Z,0.00
2019-02-21T01:21:28.105Z,0.00
2019-02-21T01:22:28.125Z,0.00
2019-02-21T01:23:28.215Z,0.00
2019-02-21T01:24:28.174Z,0.00
2019-02-21T01:25:28.193Z,0.00
2019-02-21T01:26:28.216Z,0.00
2019-02-21T01:27:28.239Z,0.00
2019-02-21T01:28:28.265Z,0.00
2019-02-21T01:29:28.285Z,0.00
2019-02-21T01:30:28.307Z,0.00
2019-02-21T01:31:28.336Z,0.00
2019-02-21T01:32:28.356Z,0.00
2019-02-21T01:33:28.380Z,0.00
2019-02-21T01:34:28.398Z,0.00
2019-02-21T01:35:28.423Z,0.00
2019-02-21T01:36:28.443Z,0.00
2019-02-21T01:37:28.466Z,0.00
2019-02-21T01:38:28.491Z,0.00
2019-02-21T01:39:28.514Z,0.00
2019-02-21T01:40:28.533Z,0.00
2019-02-21T01:41:28.557Z,0.00
2019-02-21T01:42:28.578Z,0.00
2019-02-21T01:43:28.601Z,0.00
2019-02-21T01:44:28.630Z,0.00
2019-02-21T01:45:28.648Z,0.00
2019-02-21T01:46:28.669Z,0.00
2019-02-21T01:47:28.693Z,0.00
2019-02-21T01:48:29.637Z,0.00
2019-02-21T01:49:28.738Z,0.00
2019-02-21T01:50:28.759Z,0.00
2019-02-21T01:51:28.787Z,0.00
2019-02-21T01:52:28.806Z,0.00
2019-02-21T01:53:28.828Z,0.00
2019-02-21T01:54:28.852Z,0.00
2019-02-21T01:55:28.874Z,0.00
2019-02-21T01:56:28.901Z,0.00
2019-02-21T01:57:28.920Z,0.00
2019-02-21T01:58:28.942Z,0.00
2019-02-21T01:59:28.967Z,0.00
2019-02-21T02:00:28.990Z,0.00
2019-02-21T02:01:29.011Z,0.00
2019-02-21T02:02:29.033Z,0.00
2019-02-21T02:03:29.059Z,0.00
2019-02-21T02:04:29.082Z,0.00
2019-02-21T02:05:29.102Z,0.00
2019-02-21T02:06:29.127Z,0.00
2019-02-21T02:07:29.148Z,0.00
2019-02-21T02:08:29.170Z,0.00
2019-02-21T02:09:29.197Z,0.00
2019-02-21T02:10:29.218Z,0.00
2019-02-21T02:11:29.241Z,0.00
2019-02-21T02:12:29.262Z,0.00
2019-02-21T02:13:29.287Z,0.00
2019-02-21T02:14:29.306Z,0.00
2019-02-21T02:15:29.331Z,0.00
2019-02-21T02:16:29.351Z,0.00
2019-02-21T02:17:29.379Z,0.00
2019-02-21T02:18:29.398Z,0.00
2019-02-21T02:19:29.418Z,0.00
2019-02-21T02:20:29.441Z,0.00
2019-02-21T02:21:29.464Z,0.00
2019-02-21T02:22:29.488Z,0.00
2019-02-21T02:23:29.511Z,0.00
2019-02-21T02:24:29.533Z,0.00
2019-02-21T02:25:29.553Z,0.00
2019-02-21T02:26:29.577Z,0.00
2019-02-21T02:27:29.608Z,0.00
2019-02-21T02:28:29.624Z,0.00
2019-02-21T02:29:29.642Z,0.00
2019-02-21T02:30:29.684Z,0.00
2019-02-21T02:31:29.691Z,0.00
2019-02-21T02:32:29.713Z,0.00
2019-02-21T02:33:29.733Z,0.00
2019-02-21T02:34:29.759Z,0.00
2019-02-21T02:35:29.781Z,0.00
2019-02-21T02:36:29.803Z,0.00
2019-02-21T02:37:29.824Z,0.00
2019-02-21T02:38:29.898Z,0.00
2019-02-21T02:39:29.871Z,0.00
2019-02-21T02:40:29.892Z,0.00
2019-02-21T02:41:29.915Z,0.00
2019-02-21T02:42:29.938Z,0.00
2019-02-21T02:43:29.957Z,0.00
2019-02-21T02:44:30.043Z,0.00
2019-02-21T02:45:30.002Z,0.00
2019-02-21T02:46:30.030Z,0.00
2019-02-21T02:47:30.053Z,0.00
2019-02-21T02:48:30.071Z,0.00
2019-02-21T02:49:30.096Z,0.00
2019-02-21T02:50:30.114Z,0.00
2019-02-21T02:51:30.138Z,0.00
2019-02-21T02:52:30.161Z,0.00
2019-02-21T02:53:30.182Z,0.00
2019-02-21T02:54:30.205Z,0.00
2019-02-21T02:55:30.227Z,0.00
2019-02-21T02:56:30.266Z,0.00
2019-02-21T02:57:30.270Z,0.00
2019-02-21T02:58:30.293Z,0.00
2019-02-21T02:59:40.376Z,0.00
2019-02-21T03:00:30.342Z,0.00
2019-02-21T03:01:34.927Z,0.00
2019-02-21T03:02:30.382Z,0.00
2019-02-21T03:03:30.406Z,0.00
2019-02-21T03:04:30.477Z,0.00
2019-02-21T03:05:30.449Z,0.00
2019-02-21T03:06:30.473Z,0.00
2019-02-21T03:07:30.498Z,0.00
2019-02-21T03:08:30.515Z,0.00
2019-02-21T03:09:30.536Z,0.00
2019-02-21T03:10:30.559Z,0.00
2019-02-21T03:11:30.584Z,0.00
2019-02-21T03:12:30.607Z,0.00
2019-02-21T03:13:30.627Z,0.00
2019-02-21T03:14:30.652Z,0.00
2019-02-21T03:15:30.677Z,0.00
2019-02-21T03:16:30.696Z,0.00
2019-02-21T03:17:30.713Z,0.00
2019-02-21T03:18:30.738Z,0.00
2019-02-21T03:19:30.760Z,0.00
2019-02-21T03:20:30.807Z,0.00
2019-02-21T03:21:30.804Z,0.00
2019-02-21T03:22:30.826Z,0.00
2019-02-21T03:23:30.848Z,0.00
2019-02-21T03:24:30.874Z,0.00
2019-02-21T03:25:30.891Z,0.00
2019-02-21T03:26:30.917Z,0.00
2019-02-21T03:27:30.941Z,0.00
2019-02-21T03:28:30.958Z,0.00
2019-02-21T03:29:30.983Z,0.00
2019-02-21T03:30:31.013Z,0.00
2019-02-21T03:31:31.035Z,0.00
2019-02-21T03:32:31.088Z,0.00
2019-02-21T03:33:31.090Z,0.00
2019-02-21T03:34:31.092Z,0.00
2019-02-21T03:35:31.142Z,0.00
2019-02-21T03:36:31.139Z,0.00
2019-02-21T03:37:31.203Z,0.00
2019-02-21T03:38:34.846Z,0.00
2019-02-21T03:39:31.206Z,0.00
2019-02-21T03:40:31.225Z,0.00
2019-02-21T03:41:31.247Z,0.00
2019-02-21T03:42:31.270Z,0.00
2019-02-21T03:43:31.291Z,0.00
2019-02-21T03:44:31.318Z,0.00
2019-02-21T03:45:31.341Z,0.00
2019-02-21T03:46:31.362Z,0.00
2019-02-21T03:47:31.585Z,0.00
2019-02-21T03:48:31.409Z,0.00
2019-02-21T03:49:31.424Z,0.00
2019-02-21T03:50:31.448Z,0.00
2019-02-21T03:51:31.494Z,0.00
2019-02-21T03:52:31.495Z,0.00
2019-02-21T03:53:31.518Z,0.00
2019-02-21T03:54:31.535Z,0.00
2019-02-21T03:55:31.564Z,0.00
2019-02-21T03:56:31.584Z,0.00
2019-02-21T03:57:31.602Z,0.00
2019-02-21T03:58:31.623Z,0.00
2019-02-21T03:59:31.714Z,0.00
2019-02-21T04:00:31.684Z,0.00
2019-02-21T04:01:31.692Z,0.00
2019-02-21T04:02:31.716Z,0.00
2019-02-21T04:03:31.741Z,0.00
2019-02-21T04:04:31.756Z,0.00
2019-02-21T04:05:31.779Z,0.00
2019-02-21T04:06:31.907Z,0.00
2019-02-21T04:07:31.831Z,0.00
2019-02-21T04:08:31.849Z,0.00
2019-02-21T04:09:31.866Z,0.00
2019-02-21T04:10:31.888Z,0.00
2019-02-21T04:11:31.912Z,0.00
2019-02-21T04:12:31.937Z,0.00
2019-02-21T04:13:31.957Z,0.00
2019-02-21T04:14:31.977Z,0.00
2019-02-21T04:15:32.001Z,0.00
2019-02-21T04:16:32.024Z,0.00
2019-02-21T04:17:32.046Z,0.00
2019-02-21T04:18:32.069Z,0.00
2019-02-21T04:19:32.090Z,0.00
2019-02-21T04:20:32.113Z,0.00
2019-02-21T04:21:32.133Z,0.00
2019-02-21T04:22:32.160Z,0.00
2019-02-21T04:23:32.177Z,0.00
2019-02-21T04:24:32.203Z,0.00
2019-02-21T04:25:32.222Z,0.00
2019-02-21T04:26:32.246Z,0.00
2019-02-21T04:27:32.271Z,0.00
2019-02-21T04:28:32.309Z,0.00
2019-02-21T04:29:32.311Z,0.00
2019-02-21T04:30:32.338Z,0.00
2019-02-21T04:31:32.359Z,0.00
2019-02-21T04:32:32.384Z,0.00
2019-02-21T04:33:34.441Z,0.00
2019-02-21T04:34:32.422Z,0.00
2019-02-21T04:35:32.446Z,0.00
2019-02-21T04:36:32.476Z,0.00
2019-02-21T04:37:32.488Z,0.00
2019-02-21T04:38:32.513Z,0.00
2019-02-21T04:39:32.535Z,0.00
2019-02-21T04:40:32.569Z,0.00
2019-02-21T04:41:32.579Z,0.00
2019-02-21T04:42:32.600Z,0.00
2019-02-21T04:43:32.624Z,0.00
2019-02-21T04:44:32.647Z,0.00
2019-02-21T04:45:32.670Z,0.00
2019-02-21T04:46:32.691Z,0.00
2019-02-21T04:47:32.716Z,0.00
2019-02-21T04:48:32.741Z,0.00
2019-02-21T04:49:32.760Z,0.00
2019-02-21T04:50:32.788Z,0.00
2019-02-21T04:51:32.813Z,0.00
2019-02-21T04:52:32.830Z,0.00
2019-02-21T04:53:32.856Z,0.00
2019-02-21T04:54:32.872Z,0.00
2019-02-21T04:55:32.895Z,0.00
2019-02-21T04:56:32.917Z,0.00
2019-02-21T04:57:32.936Z,0.00
2019-02-21T04:58:32.963Z,0.00
2019-02-21T04:59:32.981Z,0.00
2019-02-21T05:00:33.002Z,0.00
2019-02-21T05:01:33.033Z,0.00
2019-02-21T05:02:33.047Z,0.00
2019-02-21T05:03:33.073Z,0.00
2019-02-21T05:04:33.094Z,0.00
2019-02-21T05:05:33.113Z,0.00
2019-02-21T05:06:33.138Z,0.00
2019-02-21T05:07:33.160Z,0.00
2019-02-21T05:08:33.181Z,0.00
2019-02-21T05:09:33.204Z,0.00
2019-02-21T05:10:33.229Z,0.00
2019-02-21T05:11:33.252Z,0.00
2019-02-21T05:12:33.270Z,0.00
2019-02-21T05:13:34.008Z,0.00
2019-02-21T05:14:33.317Z,0.00
2019-02-21T05:15:33.341Z,0.00
2019-02-21T05:16:33.360Z,0.00
2019-02-21T05:17:33.383Z,0.00
2019-02-21T05:18:33.407Z,0.00
2019-02-21T05:19:33.430Z,0.00
2019-02-21T05:20:33.452Z,0.00
2019-02-21T05:21:33.474Z,0.00
2019-02-21T05:22:33.498Z,0.00
2019-02-21T05:23:33.520Z,0.00
2019-02-21T05:24:33.540Z,0.00
2019-02-21T05:25:33.563Z,5.63
2019-02-21T05:26:33.586Z,5.63
2019-02-21T05:27:33.606Z,5.63
2019-02-21T05:28:33.631Z,5.63
2019-02-21T05:29:33.660Z,5.63
2019-02-21T05:30:36.253Z,5.63
2019-02-21T05:31:33.699Z,11.25
2019-02-21T05:32:41.020Z,11.25
2019-02-21T05:33:33.740Z,11.25
2019-02-21T05:34:33.761Z,11.25
2019-02-21T05:35:33.787Z,11.25
2019-02-21T05:36:33.807Z,16.88
2019-02-21T05:37:33.827Z,16.88
2019-02-21T05:38:33.861Z,16.88
2019-02-21T05:39:33.873Z,22.50
2019-02-21T05:40:33.906Z,22.50
2019-02-21T05:41:33.922Z,22.50
2019-02-21T05:42:33.943Z,28.13
2019-02-21T05:43:33.963Z,28.13
2019-02-21T05:44:33.986Z,28.13
2019-02-21T05:45:34.021Z,28.13
2019-02-21T05:46:34.084Z,33.75
2019-02-21T05:47:34.053Z,33.75
2019-02-21T05:48:34.073Z,33.75
2019-02-21T05:49:34.093Z,33.75
2019-02-21T05:50:34.121Z,39.38
2019-02-21T05:51:34.139Z,39.38
2019-02-21T05:52:34.165Z,45.00
2019-02-21T05:53:34.188Z,45.00
2019-02-21T05:54:34.205Z,50.63
2019-02-21T05:55:34.229Z,56.25
2019-02-21T05:56:34.252Z,56.25
2019-02-21T05:57:34.273Z,61.88
2019-02-21T05:58:34.294Z,61.88
2019-02-21T05:59:34.316Z,61.88
2019-02-21T06:00:36.738Z,67.50
2019-02-21T06:01:34.366Z,67.50
2019-02-21T06:02:34.384Z,73.13
2019-02-21T06:03:35.973Z,78.75
2019-02-21T06:04:34.433Z,78.75
2019-02-21T06:05:34.452Z,84.38
2019-02-21T06:06:34.479Z,84.38
2019-02-21T06:07:34.497Z,90.00
2019-02-21T06:08:34.521Z,90.00
2019-02-21T06:09:34.540Z,95.63
2019-02-21T06:10:34.563Z,95.63
2019-02-21T06:11:35.252Z,95.63
2019-02-21T06:12:34.613Z,106.88
2019-02-21T06:13:34.634Z,118.13
2019-02-21T06:14:34.656Z,123.75
2019-02-21T06:15:34.677Z,123.75
2019-02-21T06:16:34.702Z,135.00
2019-02-21T06:17:34.726Z,146.25
2019-02-21T06:18:34.748Z,168.75
2019-02-21T06:19:34.770Z,185.63
2019-02-21T06:20:34.794Z,196.88
2019-02-21T06:21:34.818Z,213.75
2019-02-21T06:22:34.843Z,230.63
2019-02-21T06:23:34.865Z,247.50
2019-02-21T06:24:34.888Z,258.75
2019-02-21T06:25:34.911Z,264.38
2019-02-21T06:26:34.932Z,270.00
2019-02-21T06:27:34.957Z,281.25
2019-02-21T06:28:34.980Z,286.88
2019-02-21T06:29:35.013Z,292.50
2019-02-21T06:30:35.030Z,292.50
2019-02-21T06:31:35.058Z,281.25
2019-02-21T06:32:35.078Z,309.38
2019-02-21T06:33:35.103Z,315.00
2019-02-21T06:34:35.186Z,320.63
2019-02-21T06:35:35.150Z,303.75
2019-02-21T06:36:35.197Z,298.13
2019-02-21T06:37:37.696Z,286.88
2019-02-21T06:38:35.226Z,292.50
2019-02-21T06:39:35.251Z,298.13
2019-02-21T06:40:36.588Z,309.38
2019-02-21T06:41:35.303Z,303.75
2019-02-21T06:42:35.327Z,303.75
2019-02-21T06:43:35.354Z,303.75
2019-02-21T06:44:37.928Z,292.50
2019-02-21T06:45:35.410Z,298.13
2019-02-21T06:46:35.433Z,303.75
2019-02-21T06:47:35.461Z,326.25
2019-02-21T06:48:35.482Z,331.88
2019-02-21T06:49:35.510Z,337.50
2019-02-21T06:50:35.539Z,309.38
2019-02-21T06:51:35.563Z,303.75
2019-02-21T06:52:35.585Z,286.88
2019-02-21T06:53:35.655Z,258.75
2019-02-21T06:54:35.637Z,270.00
2019-02-21T06:55:35.662Z,326.25
2019-02-21T06:56:35.697Z,331.88
2019-02-21T06:57:35.718Z,337.50
2019-02-21T06:58:35.746Z,275.63
2019-02-21T06:59:42.435Z,270.00
2019-02-21T07:00:35.794Z,275.63
2019-02-21T07:01:35.817Z,281.25
2019-02-21T07:02:35.914Z,286.88
2019-02-21T07:03:35.872Z,270.00
2019-02-21T07:04:35.897Z,270.00
2019-02-21T07:05:36.998Z,275.63
2019-02-21T07:06:35.947Z,275.63
2019-02-21T07:07:35.976Z,275.63
2019-02-21T07:08:36.003Z,298.13
2019-02-21T07:09:36.027Z,309.38
2019-02-21T07:10:36.050Z,286.88
2019-02-21T07:11:36.075Z,286.88
2019-02-21T07:12:36.102Z,303.75
2019-02-21T07:13:36.130Z,354.38
2019-02-21T07:14:36.152Z,388.13
2019-02-21T07:15:36.179Z,489.38
2019-02-21T07:16:37.396Z,534.38
2019-02-21T07:17:36.229Z,568.13
2019-02-21T07:18:36.256Z,579.38
2019-02-21T07:19:36.280Z,596.25
2019-02-21T07:20:36.306Z,624.38
2019-02-21T07:21:36.703Z,658.13
2019-02-21T07:22:36.360Z,641.25
2019-02-21T07:23:43.525Z,641.25
2019-02-21T07:24:38.398Z,618.75
2019-02-21T07:25:36.437Z,646.88
2019-02-21T07:26:36.465Z,675.00
2019-02-21T07:27:36.492Z,658.13
2019-02-21T07:28:36.523Z,646.88
2019-02-21T07:29:38.723Z,658.13
2019-02-21T07:30:36.574Z,658.13
2019-02-21T07:31:36.604Z,635.63
2019-02-21T07:32:36.630Z,641.25
2019-02-21T07:33:36.655Z,607.50
2019-02-21T07:34:36.686Z,607.50
2019-02-21T07:35:36.715Z,568.13
2019-02-21T07:36:36.746Z,556.88
2019-02-21T07:37:36.775Z,545.63
2019-02-21T07:38:36.798Z,551.25
2019-02-21T07:39:36.829Z,573.75
2019-02-21T07:40:36.857Z,579.38
2019-02-21T07:41:36.881Z,517.50
2019-02-21T07:42:36.911Z,517.50
2019-02-21T07:43:36.956Z,455.63
2019-02-21T07:44:36.968Z,450.00
2019-02-21T07:45:36.995Z,444.38
2019-02-21T07:46:37.024Z,438.75
2019-02-21T07:47:37.054Z,450.00
2019-02-21T07:48:37.081Z,478.13
2019-02-21T07:49:37.110Z,472.50
2019-02-21T07:50:37.139Z,433.13
2019-02-21T07:51:37.165Z,438.75
2019-02-21T07:52:37.191Z,438.75
2019-02-21T07:53:37.231Z,438.75
2019-02-21T07:54:37.247Z,433.13
2019-02-21T07:55:37.283Z,444.38
2019-02-21T07:56:42.077Z,455.63
2019-02-21T07:57:37.332Z,450.00
2019-02-21T07:58:39.542Z,450.00
2019-02-21T07:59:37.387Z,461.25
2019-02-21T08:00:37.413Z,478.13
2019-02-21T08:01:37.443Z,489.38
2019-02-21T08:02:37.470Z,495.00
2019-02-21T08:03:44.211Z,472.50
2019-02-21T08:04:37.533Z,455.63
2019-02-21T08:05:37.551Z,472.50
2019-02-21T08:06:37.579Z,466.88
2019-02-21T08:07:37.605Z,461.25
2019-02-21T08:08:37.634Z,461.25
2019-02-21T08:09:37.659Z,472.50
2019-02-21T08:10:37.686Z,472.50
2019-02-21T08:11:37.715Z,466.88
2019-02-21T08:12:40.433Z,466.88
2019-02-21T08:13:37.768Z,472.50
2019-02-21T08:14:37.797Z,461.25
2019-02-21T08:15:37.824Z,455.63
2019-02-21T08:16:37.855Z,455.63
2019-02-21T08:17:37.877Z,450.00
2019-02-21T08:18:37.906Z,444.38
2019-02-21T08:19:37.933Z,438.75
2019-02-21T08:20:40.887Z,444.38
2019-02-21T08:21:38.108Z,450.00
2019-02-21T08:22:38.016Z,461.25
2019-02-21T08:23:38.042Z,472.50
2019-02-21T08:24:38.071Z,472.50
2019-02-21T08:25:38.095Z,478.13
2019-02-21T08:26:38.122Z,483.75
2019-02-21T08:27:38.148Z,495.00
2019-02-21T08:28:38.176Z,517.50
2019-02-21T08:29:38.204Z,528.75
2019-02-21T08:30:38.232Z,534.38
2019-02-21T08:31:38.255Z,545.63
2019-02-21T08:32:38.282Z,568.13
2019-02-21T08:33:38.309Z,573.75
2019-02-21T08:34:38.344Z,590.63
2019-02-21T08:35:38.363Z,596.25
2019-02-21T08:36:38.392Z,624.38
2019-02-21T08:37:38.422Z,652.50
2019-02-21T08:38:38.447Z,669.38
2019-02-21T08:39:38.473Z,708.75
2019-02-21T08:40:38.501Z,708.75
2019-02-21T08:41:38.542Z,697.50
2019-02-21T08:42:38.564Z,714.38
2019-02-21T08:43:38.586Z,725.63
2019-02-21T08:44:38.613Z,720.00
2019-02-21T08:45:38.640Z,765.00
2019-02-21T08:46:38.667Z,776.25
2019-02-21T08:47:38.697Z,781.88
2019-02-21T08:48:40.510Z,810.00
2019-02-21T08:49:38.758Z,810.00
2019-02-21T08:50:38.791Z,821.25
2019-02-21T08:51:38.813Z,855.00
2019-02-21T08:52:38.841Z,832.50
2019-02-21T08:53:38.869Z,798.75
2019-02-21T08:54:38.898Z,765.00
2019-02-21T08:55:40.477Z,714.38
2019-02-21T08:56:38.962Z,680.63
2019-02-21T08:57:38.986Z,669.38
2019-02-21T08:58:39.018Z,641.25
2019-02-21T08:59:39.048Z,618.75
2019-02-21T09:00:39.081Z,590.63
2019-02-21T09:01:39.110Z,579.38
2019-02-21T09:02:39.137Z,573.75
2019-02-21T09:03:39.171Z,596.25
2019-02-21T09:04:39.197Z,579.38
2019-02-21T09:05:39.232Z,585.00
2019-02-21T09:06:39.263Z,545.63
2019-02-21T09:07:39.288Z,573.75
2019-02-21T09:08:39.322Z,534.38
2019-02-21T09:09:39.350Z,562.50
2019-02-21T09:10:39.388Z,562.50
2019-02-21T09:11:39.410Z,528.75
2019-02-21T09:12:39.438Z,545.63
2019-02-21T09:13:41.591Z,511.88
2019-02-21T09:14:39.503Z,528.75
2019-02-21T09:15:39.530Z,511.88
2019-02-21T09:16:39.564Z,495.00
2019-02-21T09:17:39.595Z,500.63
2019-02-21T09:18:39.623Z,489.38
2019-02-21T09:19:39.660Z,495.00
2019-02-21T09:20:39.684Z,421.88
2019-02-21T09:21:39.715Z,483.75
2019-02-21T09:22:39.746Z,489.38
2019-02-21T09:23:39.777Z,478.13
2019-02-21T09:24:42.372Z,472.50
2019-02-21T09:25:39.842Z,472.50
2019-02-21T09:26:39.883Z,472.50
2019-02-21T09:27:39.905Z,466.88
2019-02-21T09:28:39.931Z,466.88
2019-02-21T09:29:39.965Z,461.25
2019-02-21T09:30:39.995Z,461.25
2019-02-21T09:31:40.027Z,466.88
2019-02-21T09:32:41.963Z,466.88
2019-02-21T09:33:40.091Z,472.50
2019-02-21T09:34:40.121Z,466.88
2019-02-21T09:35:40.151Z,472.50
2019-02-21T09:36:40.180Z,483.75
2019-02-21T09:37:40.209Z,489.38
2019-02-21T09:38:40.244Z,495.00
2019-02-21T09:39:40.318Z,506.25
2019-02-21T09:40:42.657Z,517.50
2019-02-21T09:41:40.336Z,511.88
2019-02-21T09:42:40.365Z,511.88
2019-02-21T09:43:40.395Z,511.88
2019-02-21T09:44:40.430Z,511.88
2019-02-21T09:45:42.293Z,500.63
2019-02-21T09:46:40.646Z,495.00
2019-02-21T09:47:40.524Z,506.25
2019-02-21T09:48:40.577Z,506.25
2019-02-21T09:49:40.592Z,495.00
2019-02-21T09:50:40.617Z,500.63
2019-02-21T09:51:40.650Z,500.63
2019-02-21T09:52:40.686Z,500.63
2019-02-21T09:53:40.714Z,500.63
2019-02-21T09:54:40.748Z,500.63
2019-02-21T09:55:40.779Z,506.25
2019-02-21T09:56:40.814Z,506.25
2019-02-21T09:57:40.841Z,495.00
2019-02-21T09:58:40.873Z,483.75
2019-02-21T09:59:40.904Z,511.88
2019-02-21T10:00:40.940Z,500.63
2019-02-21T10:01:40.971Z,506.25
2019-02-21T10:02:42.110Z,528.75
2019-02-21T10:03:41.032Z,528.75
2019-02-21T10:04:41.064Z,534.38
2019-02-21T10:05:41.098Z,534.38
2019-02-21T10:06:41.128Z,528.75
2019-02-21T10:07:41.159Z,523.13
2019-02-21T10:08:41.193Z,517.50
2019-02-21T10:09:41.223Z,500.63
2019-02-21T10:10:41.262Z,500.63
2019-02-21T10:11:41.289Z,483.75
2019-02-21T10:12:41.320Z,472.50
2019-02-21T10:13:41.352Z,466.88
2019-02-21T10:14:41.385Z,478.13
2019-02-21T10:15:41.416Z,506.25
2019-02-21T10:16:41.469Z,506.25
2019-02-21T10:17:41.483Z,500.63
2019-02-21T10:18:41.513Z,506.25
2019-02-21T10:19:41.547Z,495.00
2019-02-21T10:20:41.577Z,461.25
2019-02-21T10:21:41.609Z,461.25
2019-02-21T10:22:41.643Z,461.25
2019-02-21T10:23:42.225Z,483.75
2019-02-21T10:24:41.706Z,506.25
2019-02-21T10:25:41.739Z,450.00
2019-02-21T10:26:41.781Z,421.88
2019-02-21T10:27:41.802Z,382.50
2019-02-21T10:28:41.832Z,388.13
2019-02-21T10:29:41.866Z,399.38
2019-02-21T10:30:41.896Z,399.38
2019-02-21T10:31:41.928Z,393.75
2019-02-21T10:32:41.963Z,399.38
2019-02-21T10:33:47.145Z,399.38
2019-02-21T10:34:43.269Z,410.63
2019-02-21T10:35:42.055Z,427.50
2019-02-21T10:36:42.085Z,421.88
2019-02-21T10:37:42.122Z,405.00
2019-02-21T10:38:42.147Z,393.75
2019-02-21T10:39:42.183Z,371.25
2019-02-21T10:40:42.212Z,393.75
2019-02-21T10:41:42.244Z,388.13
2019-02-21T10:42:42.274Z,388.13
2019-02-21T10:43:42.307Z,410.63
2019-02-21T10:44:42.338Z,388.13
2019-02-21T10:45:47.890Z,399.38
2019-02-21T10:46:42.432Z,399.38
2019-02-21T10:47:42.433Z,388.13
2019-02-21T10:48:42.465Z,376.88
2019-02-21T10:49:42.496Z,382.50
2019-02-21T10:50:42.527Z,393.75
2019-02-21T10:51:42.560Z,388.13
2019-02-21T10:52:42.592Z,354.38
2019-02-21T10:53:42.622Z,315.00
2019-02-21T10:54:42.856Z,309.38
2019-02-21T10:55:42.686Z,303.75
2019-02-21T10:56:42.718Z,337.50
2019-02-21T10:57:45.309Z,393.75
2019-02-21T10:58:42.781Z,393.75
2019-02-21T10:59:46.533Z,382.50
2019-02-21T11:00:42.842Z,393.75
2019-02-21T11:01:42.874Z,399.38
2019-02-21T11:02:42.909Z,416.25
2019-02-21T11:03:42.938Z,416.25
2019-02-21T11:04:54.132Z,421.88
2019-02-21T11:05:42.999Z,433.13
2019-02-21T11:06:43.027Z,427.50
2019-02-21T11:07:43.062Z,421.88
2019-02-21T11:08:43.090Z,421.88
2019-02-21T11:09:43.123Z,421.88
2019-02-21T11:10:43.155Z,421.88
2019-02-21T11:11:43.187Z,421.88
2019-02-21T11:12:43.218Z,421.88
2019-02-21T11:13:43.249Z,427.50
2019-02-21T11:14:47.446Z,427.50
2019-02-21T11:15:43.313Z,427.50
2019-02-21T11:16:43.349Z,427.50
2019-02-21T11:17:43.386Z,433.13
2019-02-21T11:18:43.411Z,421.88
2019-02-21T11:19:43.444Z,410.63
2019-02-21T11:20:43.479Z,416.25
2019-02-21T11:21:43.508Z,433.13
2019-02-21T11:22:43.569Z,433.13
2019-02-21T11:23:43.579Z,450.00
2019-02-21T11:24:43.604Z,421.88
2019-02-21T11:25:43.639Z,438.75
2019-02-21T11:26:43.670Z,455.63
2019-02-21T11:27:43.708Z,450.00
2019-02-21T11:28:43.734Z,472.50
2019-02-21T11:29:43.764Z,483.75
2019-02-21T11:30:43.797Z,517.50
2019-02-21T11:31:43.828Z,652.50
2019-02-21T11:32:43.860Z,708.75
2019-02-21T11:33:43.895Z,871.88
2019-02-21T11:34:43.923Z,855.00
2019-02-21T11:35:43.954Z,838.13
2019-02-21T11:36:43.989Z,950.63
2019-02-21T11:37:46.801Z,956.25
2019-02-21T11:38:44.051Z,1141.88
2019-02-21T11:39:44.081Z,1344.38
2019-02-21T11:40:44.113Z,1344.38
2019-02-21T11:41:44.144Z,1327.50
2019-02-21T11:42:44.178Z,1366.88
2019-02-21T11:43:44.213Z,1350.00
2019-02-21T11:44:44.239Z,1321.88
2019-02-21T11:45:53.414Z,1305.00
2019-02-21T11:46:44.305Z,1361.25
2019-02-21T11:47:44.337Z,1366.88
2019-02-21T11:48:44.369Z,1316.25
2019-02-21T11:49:44.396Z,1299.38
2019-02-21T11:50:44.431Z,1327.50
2019-02-21T11:51:44.464Z,1282.50
2019-02-21T11:52:44.495Z,1265.63
2019-02-21T11:53:44.525Z,1276.88
2019-02-21T11:54:44.555Z,1299.38
2019-02-21T11:55:44.587Z,956.25
2019-02-21T11:56:44.623Z,354.38
2019-02-21T11:57:44.650Z,247.50
2019-02-21T11:58:44.688Z,247.50
2019-02-21T11:59:44.720Z,247.50
2019-02-21T12:00:44.746Z,247.50
2019-02-21T12:01:44.778Z,247.50
2019-02-21T12:02:44.806Z,247.50
2019-02-21T12:03:44.838Z,247.50
2019-02-21T12:04:44.868Z,264.38
2019-02-21T12:05:44.897Z,281.25
2019-02-21T12:06:44.926Z,281.25
2019-02-21T12:07:44.956Z,281.25
2019-02-21T12:08:44.987Z,281.25
2019-02-21T12:09:45.013Z,281.25
2019-02-21T12:10:45.043Z,303.75
2019-02-21T12:11:45.073Z,511.88
2019-02-21T12:12:45.098Z,731.25
2019-02-21T12:13:45.126Z,826.88
2019-02-21T12:14:45.158Z,849.38
2019-02-21T12:15:45.188Z,776.25
2019-02-21T12:16:45.211Z,832.50
2019-02-21T12:17:45.238Z,641.25
2019-02-21T12:18:45.270Z,376.88
2019-02-21T12:19:45.295Z,303.75
2019-02-21T12:20:45.324Z,286.88
2019-02-21T12:21:45.351Z,281.25
2019-02-21T12:22:45.382Z,270.00
2019-02-21T12:23:45.408Z,258.75
2019-02-21T12:24:45.435Z,258.75
2019-02-21T12:25:45.467Z,258.75
2019-02-21T12:26:45.489Z,258.75
2019-02-21T12:27:45.522Z,253.13
2019-02-21T12:28:45.550Z,253.13
2019-02-21T12:29:45.576Z,258.75
2019-02-21T12:30:45.600Z,264.38
2019-02-21T12:31:45.625Z,275.63
2019-02-21T12:32:45.657Z,275.63
2019-02-21T12:33:45.680Z,286.88
2019-02-21T12:34:45.709Z,292.50
2019-02-21T12:35:45.732Z,303.75
2019-02-21T12:36:45.760Z,309.38
2019-02-21T12:37:45.785Z,320.63
2019-02-21T12:38:45.809Z,320.63
2019-02-21T12:39:45.839Z,320.63
2019-02-21T12:40:45.863Z,320.63
2019-02-21T12:41:45.890Z,315.00
2019-02-21T12:42:45.915Z,315.00
2019-02-21T12:43:45.938Z,315.00
2019-02-21T12:44:47.807Z,309.38
2019-02-21T12:45:45.989Z,309.38
2019-02-21T12:46:46.018Z,309.38
2019-02-21T12:47:50.845Z,309.38
2019-02-21T12:48:46.070Z,309.38
2019-02-21T12:49:46.095Z,309.38